Time;durP1;ratioP1;P1;durP2;ratioP2;P2;SDS_P1;SDS_P2;PMS_P1;PMS_P2;Temp;Humidity;BMP_temperature;BMP_pressure;BME280_temperature;BME280_humidity;BME280_pressure;Samples;Min_cycle;Max_cycle;Signal;HPM_P1;HPM_P2
2023/08/03 00:00:58;;;;;;;3.80;1.33;;;;;;;16.68;100.00;99080.41;6113539;29;20727;-66
2023/08/03 00:04:19;;;;;;;3.28;1.85;;;;;;;16.66;100.00;99082.53;6112090;29;20224;-65
2023/08/03 00:07:41;;;;;;;1.60;1.50;;;;;;;16.57;100.00;99080.25;6115467;29;20236;-65
2023/08/03 00:11:02;;;;;;;2.90;1.60;;;;;;;16.52;100.00;99088.25;6108800;29;20235;-66
2023/08/03 00:14:23;;;;;;;4.73;2.23;;;;;;;16.69;100.00;99075.78;6114871;29;20239;-66
2023/08/03 00:17:45;;;;;;;2.87;2.20;;;;;;;16.59;100.00;99078.16;6114555;29;20232;-65
2023/08/03 00:21:06;;;;;;;1.70;1.47;;;;;;;16.60;100.00;99082.56;6102564;29;20331;-65
2023/08/03 00:24:28;;;;;;;2.00;1.63;;;;;;;16.53;100.00;99082.59;6114590;29;20243;-66
2023/08/03 00:27:49;;;;;;;3.10;1.70;;;;;;;16.55;100.00;99085.09;6116955;29;20240;-66
2023/08/03 00:31:10;;;;;;;5.03;2.17;;;;;;;16.73;100.00;99079.72;6098424;29;20235;-66
2023/08/03 00:34:31;;;;;;;2.37;1.93;;;;;;;16.62;100.00;99085.88;6116076;29;20729;-66
2023/08/03 00:37:53;;;;;;;4.27;2.33;;;;;;;16.56;100.00;99086.78;6116286;28;20356;-67
2023/08/03 00:41:17;;;;;;;1.30;1.20;;;;;;;16.51;100.00;99084.69;6097001;29;20236;-66
2023/08/03 00:44:38;;;;;;;5.30;2.23;;;;;;;16.59;100.00;99078.16;6118011;29;20236;-65
2023/08/03 00:47:59;;;;;;;1.20;1.10;;;;;;;16.75;100.00;99077.66;6109052;29;20236;-65
2023/08/03 00:51:20;;;;;;;3.70;1.77;;;;;;;16.88;100.00;99077.53;6116815;28;20381;-65
2023/08/03 00:54:41;;;;;;;1.87;1.67;;;;;;;16.78;100.00;99069.03;6118906;29;20239;-66
2023/08/03 00:58:04;;;;;;;1.47;1.03;;;;;;;16.71;100.00;99069.06;6121150;28;20338;-66
2023/08/03 01:01:26;;;;;;;2.03;1.67;;;;;;;16.87;100.00;99073.16;6117841;29;20611;-65
2023/08/03 01:04:47;;;;;;;2.50;1.47;;;;;;;16.61;100.00;99073.31;6121750;28;20848;-66
2023/08/03 01:08:09;;;;;;;1.60;1.30;;;;;;;16.57;100.00;99064.78;6121828;29;20499;-66
2023/08/03 01:11:30;;;;;;;2.57;1.73;;;;;;;16.69;100.00;99063.00;6121809;29;20235;-66
2023/08/03 01:14:52;;;;;;;1.90;1.40;;;;;;;16.73;100.00;99061.53;6120865;29;20243;-66
2023/08/03 01:18:13;;;;;;;3.37;1.90;;;;;;;16.88;100.00;99063.94;6103056;29;20223;-66
2023/08/03 01:21:37;;;;;;;1.92;1.77;;;;;;;16.75;100.00;99059.41;6107095;29;20228;-66
2023/08/03 01:24:59;;;;;;;3.33;2.13;;;;;;;16.80;100.00;99047.88;6115270;29;20298;-65
2023/08/03 01:28:20;;;;;;;2.00;1.30;;;;;;;16.92;100.00;99051.53;6117648;29;20677;-66
2023/08/03 01:31:41;;;;;;;1.60;1.10;;;;;;;16.93;100.00;99049.66;6117825;29;20232;-65
2023/08/03 01:35:02;;;;;;;2.07;1.60;;;;;;;16.77;100.00;99043.69;6120571;28;20259;-66
2023/08/03 01:38:23;;;;;;;4.67;1.60;;;;;;;16.92;100.00;99040.66;6114604;28;20240;-65
2023/08/03 01:41:46;;;;;;;1.80;1.00;;;;;;;16.76;100.00;99042.03;6105833;29;20231;-66
2023/08/03 01:45:08;;;;;;;2.97;1.40;;;;;;;16.81;100.00;99038.66;6115738;29;20236;-66
2023/08/03 01:48:28;;;;;;;1.85;1.40;;;;;;;16.66;100.00;99036.25;6126760;28;20319;-66
2023/08/03 01:51:50;;;;;;;1.60;1.50;;;;;;;16.79;100.00;99027.16;6105571;29;20228;-65
2023/08/03 01:55:12;;;;;;;2.03;1.70;;;;;;;16.84;100.00;99030.03;6105651;29;20394;-65
2023/08/03 01:58:34;;;;;;;3.70;1.60;;;;;;;16.84;100.00;99031.91;6118147;29;20519;-66
2023/08/03 02:01:55;;;;;;;4.70;1.80;;;;;;;16.91;100.00;99028.09;6107893;29;20224;-65
2023/08/03 02:05:16;;;;;;;2.73;1.77;;;;;;;16.90;100.00;99022.91;6115080;29;20244;-66
2023/08/03 02:08:36;;;;;;;1.63;1.20;;;;;;;16.81;100.00;99019.59;6106941;29;20236;-65
2023/08/03 02:11:57;;;;;;;2.23;2.03;;;;;;;16.92;100.00;99018.88;6118959;29;20236;-65
2023/08/03 02:15:21;;;;;;;3.40;1.63;;;;;;;16.82;100.00;99017.69;6109679;28;20232;-66
2023/08/03 02:18:41;;;;;;;1.00;0.90;;;;;;;16.82;100.00;99013.09;6117856;29;20232;-65
2023/08/03 02:22:02;;;;;;;3.40;1.50;;;;;;;16.85;100.00;99009.94;6097135;29;20418;-65
2023/08/03 02:25:23;;;;;;;2.00;1.53;;;;;;;16.92;100.00;99005.25;6116819;29;20223;-65
2023/08/03 02:28:44;;;;;;;1.83;1.60;;;;;;;17.00;100.00;99004.97;6120355;29;20889;-66
2023/08/03 02:32:09;;;;;;;3.07;1.20;;;;;;;17.05;100.00;99004.31;6104348;29;20228;-66
2023/08/03 02:35:34;;;;;;;2.20;1.20;;;;;;;16.97;100.00;99004.59;6119180;29;20232;-65
2023/08/03 02:39:05;;;;;;;1.93;1.50;;;;;;;16.87;100.00;99001.56;6113675;29;20259;-65
2023/08/03 02:42:26;;;;;;;3.00;1.70;;;;;;;16.98;100.00;99009.00;6084915;29;20243;-65
2023/08/03 02:45:48;;;;;;;1.90;1.20;;;;;;;17.00;100.00;99006.88;6104963;29;20341;-66
2023/08/03 02:49:10;;;;;;;1.87;1.33;;;;;;;17.07;100.00;99004.91;6090694;29;20232;-64
2023/08/03 02:52:32;;;;;;;3.17;1.63;;;;;;;16.90;100.00;98998.41;6091080;29;20319;-66
2023/08/03 02:55:53;;;;;;;2.17;1.50;;;;;;;16.77;100.00;98999.34;6101640;29;20247;-66
2023/08/03 02:59:18;;;;;;;2.43;1.60;;;;;;;17.04;100.00;98994.50;6105021;29;20256;-66
2023/08/03 03:02:39;;;;;;;1.33;1.20;;;;;;;17.00;100.00;98993.28;6099595;28;20533;-66
2023/08/03 03:06:03;;;;;;;2.50;1.73;;;;;;;16.93;100.00;98996.06;6109832;28;20243;-65
2023/08/03 03:09:27;;;;;;;2.45;1.73;;;;;;;16.90;100.00;98988.31;6101781;28;20253;-66
2023/08/03 03:12:49;;;;;;;3.25;1.33;;;;;;;16.88;100.00;98984.16;6114556;28;20327;-64
2023/08/03 03:16:10;;;;;;;1.00;1.00;;;;;;;16.91;100.00;98978.25;6079980;29;20299;-65
2023/08/03 03:19:31;;;;;;;2.10;1.40;;;;;;;17.02;100.00;98981.06;6104163;29;20236;-66
2023/08/03 03:22:54;;;;;;;1.20;1.08;;;;;;;17.07;100.00;98969.53;6115267;28;20231;-65
2023/08/03 03:26:15;;;;;;;3.28;1.60;;;;;;;17.05;100.00;98969.75;6092851;29;20251;-67
2023/08/03 03:29:36;;;;;;;1.67;1.20;;;;;;;16.87;100.00;98967.00;6094237;29;20518;-66
2023/08/03 03:32:57;;;;;;;1.80;1.30;;;;;;;17.07;100.00;98969.53;6089285;29;20250;-64
2023/08/03 03:36:42;;;;;;;2.83;1.03;;;;;;;17.01;100.00;98965.81;6054776;29;20343;-66
2023/08/03 03:40:07;;;;;;;3.13;1.73;;;;;;;17.17;100.00;98967.94;6101982;29;20227;-65
2023/08/03 03:43:33;;;;;;;2.40;1.40;;;;;;;17.08;100.00;98965.75;6093243;29;20237;-65
2023/08/03 03:46:55;;;;;;;1.30;1.20;;;;;;;17.10;100.00;98950.88;6097042;29;20235;-65
2023/08/03 03:50:18;;;;;;;2.63;1.30;;;;;;;17.01;100.00;98951.38;6094283;29;20220;-66
2023/08/03 03:53:39;;;;;;;2.13;1.77;;;;;;;16.96;100.00;98948.50;6108667;29;20330;-65
2023/08/03 03:57:08;;;;;;;2.80;1.73;;;;;;;17.10;100.00;98950.03;6087988;29;20244;-65
2023/08/03 04:00:29;;;;;;;3.23;1.37;;;;;;;16.96;100.00;98943.06;6095468;29;20243;-66
2023/08/03 04:03:51;;;;;;;3.60;1.77;;;;;;;17.04;100.00;98942.75;6085774;29;20236;-66
2023/08/03 04:07:12;;;;;;;1.37;1.27;;;;;;;17.16;100.00;98949.97;6082937;28;20236;-66
2023/08/03 04:10:35;;;;;;;2.40;1.60;;;;;;;17.17;100.00;98953.50;6112312;28;20236;-66
2023/08/03 04:13:57;;;;;;;6.55;1.52;;;;;;;17.15;100.00;98948.28;6109518;29;20232;-65
2023/08/03 04:17:18;;;;;;;2.60;0.97;;;;;;;17.06;100.00;98946.09;6092956;29;20223;-66
2023/08/03 04:20:38;;;;;;;2.93;1.77;;;;;;;17.01;100.00;98944.03;6103777;29;20235;-66
2023/08/03 04:24:00;;;;;;;3.27;1.67;;;;;;;17.20;100.00;98944.88;6106548;29;20239;-65
2023/08/03 04:27:21;;;;;;;1.40;1.30;;;;;;;17.10;100.00;98941.84;6094926;29;20252;-66
2023/08/03 04:30:43;;;;;;;2.07;1.30;;;;;;;16.99;100.00;98948.88;6105386;29;20239;-65
2023/08/03 04:34:06;;;;;;;2.00;1.10;;;;;;;17.02;100.00;98945.69;6094015;29;20231;-66
2023/08/03 04:37:28;;;;;;;3.40;1.43;;;;;;;17.02;100.00;98942.97;6096075;29;21014;-66
2023/08/03 04:40:49;;;;;;;1.03;1.00;;;;;;;16.90;100.00;98943.94;6100768;29;20240;-65
2023/08/03 04:44:10;;;;;;;1.70;1.17;;;;;;;16.95;100.00;98938.66;6091195;29;20312;-65
2023/08/03 04:47:33;;;;;;;2.13;1.20;;;;;;;16.88;100.00;98941.44;6092565;29;20307;-66
2023/08/03 04:50:55;;;;;;;2.27;2.00;;;;;;;17.23;100.00;98944.44;6125898;28;20236;-66
2023/08/03 04:54:17;;;;;;;2.90;1.33;;;;;;;17.12;100.00;98946.03;6092082;29;20601;-65
2023/08/03 04:57:38;;;;;;;1.17;1.03;;;;;;;17.17;100.00;98948.03;6102204;28;20231;-65
2023/08/03 05:01:00;;;;;;;2.45;1.50;;;;;;;17.03;100.00;98941.06;6103470;29;20227;-65
2023/08/03 05:04:23;;;;;;;3.00;0.90;;;;;;;16.90;100.00;98935.78;6102893;29;20231;-66
2023/08/03 05:07:43;;;;;;;1.57;1.20;;;;;;;16.87;100.00;98941.66;6110994;28;20239;-65
2023/08/03 05:11:04;;;;;;;2.83;1.10;;;;;;;16.95;100.00;98935.94;6108323;29;20320;-66
2023/08/03 05:14:30;;;;;;;1.83;1.47;;;;;;;17.02;100.00;98934.78;6094602;29;20240;-64
2023/08/03 05:17:51;;;;;;;1.30;1.20;;;;;;;16.94;100.00;98945.16;6106739;29;20235;-65
2023/08/03 05:21:14;;;;;;;2.88;1.73;;;;;;;16.88;100.00;98946.03;6085219;29;20240;-66
2023/08/03 05:24:35;;;;;;;2.83;2.03;;;;;;;16.78;100.00;98949.28;6101872;29;20881;-65
2023/08/03 05:27:56;;;;;;;1.13;1.03;;;;;;;16.85;100.00;98947.34;6115089;28;20243;-65
2023/08/03 05:31:17;;;;;;;2.07;1.80;;;;;;;16.82;100.00;98947.78;6110096;29;20259;-65
2023/08/03 05:34:38;;;;;;;2.43;1.57;;;;;;;16.90;100.00;98950.22;6094149;29;20244;-65
2023/08/03 05:38:00;;;;;;;4.53;1.70;;;;;;;16.80;100.00;98955.34;6098620;29;20244;-65
2023/08/03 05:41:25;;;;;;;3.55;1.75;;;;;;;16.91;100.00;98954.59;6112499;29;20228;-66
2023/08/03 05:44:46;;;;;;;3.25;1.67;;;;;;;16.93;100.00;98957.94;6108730;29;20236;-64
2023/08/03 05:48:13;;;;;;;1.67;1.25;;;;;;;16.90;100.00;98958.38;6098283;29;20259;-66
2023/08/03 05:51:33;;;;;;;1.38;1.27;;;;;;;16.87;100.00;98961.56;6116060;28;20610;-65
2023/08/03 05:54:56;;;;;;;5.85;1.40;;;;;;;16.78;100.00;98954.72;6111589;29;20514;-66
2023/08/03 05:58:18;;;;;;;1.53;1.43;;;;;;;16.91;100.00;98959.22;6107722;29;20283;-65
2023/08/03 06:01:38;;;;;;;1.73;1.63;;;;;;;16.74;100.00;98959.78;6107241;29;20498;-65
2023/08/03 06:05:00;;;;;;;2.65;1.35;;;;;;;16.83;100.00;98960.34;6106783;28;20790;-66
2023/08/03 06:08:22;;;;;;;2.30;1.27;;;;;;;16.97;100.00;98969.19;6110012;29;20244;-64
2023/08/03 06:11:44;;;;;;;2.17;1.23;;;;;;;17.03;100.00;98971.03;6108146;28;20232;-65
2023/08/03 06:15:06;;;;;;;2.27;1.40;;;;;;;17.02;100.00;98978.34;6116405;28;20232;-65
2023/08/03 06:18:27;;;;;;;1.77;1.50;;;;;;;17.10;100.00;98978.09;6106497;28;20232;-65
2023/08/03 06:21:47;;;;;;;3.67;1.25;;;;;;;16.96;100.00;98990.16;6108242;29;20228;-65
2023/08/03 06:25:09;;;;;;;0.73;0.73;;;;;;;16.98;100.00;98982.59;6111778;29;20318;-66
2023/08/03 06:28:32;;;;;;;1.20;1.10;;;;;;;17.26;100.00;98987.56;6083750;29;20247;-66
2023/08/03 06:31:53;;;;;;;0.73;0.60;;;;;;;17.08;100.00;98987.53;6106153;29;20232;-65
2023/08/03 06:35:25;;;;;;;1.55;1.05;;;;;;;17.26;100.00;98990.28;6115214;29;20552;-65
2023/08/03 06:38:47;;;;;;;1.38;0.85;;;;;;;17.34;100.00;98995.44;6097442;29;20216;-66
2023/08/03 06:42:07;;;;;;;1.30;1.20;;;;;;;17.47;100.00;98998.03;6099212;29;20224;-66
2023/08/03 06:45:32;;;;;;;1.17;0.80;;;;;;;17.61;100.00;98996.84;6099337;29;20232;-65
2023/08/03 06:48:53;;;;;;;0.73;0.73;;;;;;;17.85;100.00;98997.81;6102139;28;20244;-66
2023/08/03 06:52:14;;;;;;;0.93;0.73;;;;;;;17.59;100.00;99001.69;6091154;28;20259;-65
2023/08/03 06:55:34;;;;;;;0.73;0.73;;;;;;;17.95;100.00;99001.69;6116315;29;21047;-66
2023/08/03 06:58:55;;;;;;;0.93;0.68;;;;;;;17.93;100.00;99002.97;6108343;28;20256;-65
2023/08/03 07:02:17;;;;;;;1.05;1.00;;;;;;;17.90;100.00;99006.16;6095718;28;20240;-65
2023/08/03 07:05:38;;;;;;;2.67;0.70;;;;;;;17.79;100.00;99013.22;6112423;29;20228;-66
2023/08/03 07:09:02;;;;;;;0.70;0.70;;;;;;;17.73;100.00;99021.47;6098653;28;20501;-66
2023/08/03 07:12:23;;;;;;;0.30;0.30;;;;;;;17.29;100.00;99026.06;6107538;29;20223;-66
2023/08/03 07:15:44;;;;;;;0.50;0.50;;;;;;;17.38;100.00;99029.34;6110468;29;20231;-64
2023/08/03 07:19:10;;;;;;;1.92;0.65;;;;;;;17.42;100.00;99030.53;6099942;29;20235;-65
2023/08/03 07:22:30;;;;;;;0.40;0.40;;;;;;;17.47;100.00;99036.16;6108473;29;20263;-64
2023/08/03 07:25:51;;;;;;;0.77;0.40;;;;;;;17.24;100.00;99038.69;6102520;29;20283;-66
2023/08/03 07:29:12;;;;;;;0.63;0.43;;;;;;;17.41;100.00;99046.09;6098558;29;20239;-64
2023/08/03 07:32:34;;;;;;;0.70;0.70;;;;;;;17.38;100.00;99053.84;6103497;29;20228;-65
2023/08/03 07:35:56;;;;;;;0.97;0.57;;;;;;;17.29;100.00;99057.94;6113136;28;20232;-64
2023/08/03 07:39:17;;;;;;;0.60;0.60;;;;;;;17.28;100.00;99062.53;6099586;29;20236;-65
2023/08/03 07:42:38;;;;;;;5.13;1.37;;;;;;;17.45;100.00;99060.09;6099147;29;20232;-66
2023/08/03 07:45:59;;;;;;;0.90;0.90;;;;;;;17.54;100.00;99058.78;6112788;29;20236;-66
2023/08/03 07:49:20;;;;;;;0.80;0.77;;;;;;;17.45;100.00;99060.09;6109357;28;20236;-66
2023/08/03 07:52:42;;;;;;;0.90;0.90;;;;;;;17.39;100.00;99067.28;6115909;28;20227;-65
2023/08/03 07:56:03;;;;;;;1.40;0.70;;;;;;;17.55;100.00;99074.88;6109778;29;20251;-65
2023/08/03 07:59:24;;;;;;;0.80;0.80;;;;;;;17.64;100.00;99077.31;6112849;29;20653;-65
2023/08/03 08:02:44;;;;;;;0.80;0.80;;;;;;;17.62;100.00;99076.72;6114377;29;20248;-66
2023/08/03 08:06:06;;;;;;;0.30;0.30;;;;;;;17.68;100.00;99079.38;6111711;29;20239;-65
2023/08/03 08:09:28;;;;;;;1.40;0.85;;;;;;;17.54;100.00;99086.84;6110373;29;20506;-65
2023/08/03 08:12:49;;;;;;;2.30;0.73;;;;;;;17.74;100.00;99091.25;6118204;28;20240;-66
2023/08/03 08:16:12;;;;;;;1.58;0.75;;;;;;;17.68;100.00;99089.44;6113548;28;20239;-65
2023/08/03 08:19:33;;;;;;;1.45;0.98;;;;;;;17.66;100.00;99100.56;6118648;29;20243;-65
2023/08/03 08:22:54;;;;;;;1.23;1.13;;;;;;;17.56;100.00;99106.53;6111914;29;20610;-65
2023/08/03 08:26:18;;;;;;;1.70;1.00;;;;;;;17.54;100.00;99105.09;6119385;28;20235;-66
2023/08/03 08:29:38;;;;;;;1.13;0.88;;;;;;;17.70;100.00;99109.13;6115723;29;20251;-66
2023/08/03 08:32:59;;;;;;;2.85;1.38;;;;;;;17.66;100.00;99121.53;6116478;28;20709;-65
2023/08/03 08:36:19;;;;;;;0.70;0.65;;;;;;;17.81;100.00;99125.59;6114682;29;20498;-65
2023/08/03 08:39:41;;;;;;;1.67;1.00;;;;;;;17.82;100.00;99132.69;6114562;29;20240;-66
2023/08/03 08:43:03;;;;;;;0.60;0.60;;;;;;;17.77;100.00;99131.72;6107810;29;20251;-65
2023/08/03 08:46:24;;;;;;;0.80;0.70;;;;;;;17.96;100.00;99147.03;6115128;29;20326;-66
2023/08/03 08:49:45;;;;;;;1.83;0.70;;;;;;;17.86;100.00;99144.81;6099340;29;20236;-66
2023/08/03 08:53:06;;;;;;;0.68;0.68;;;;;;;17.91;100.00;99142.25;6117266;28;20601;-66
2023/08/03 08:56:27;;;;;;;0.50;0.50;;;;;;;17.90;100.00;99151.47;6122188;28;20594;-65
2023/08/03 09:00:02;;;;;;;0.38;0.38;;;;;;;18.01;100.00;99156.19;6115652;29;20610;-65
2023/08/03 09:03:23;;;;;;;2.30;1.00;;;;;;;17.87;100.00;99168.31;6116152;29;20314;-64
2023/08/03 09:06:44;;;;;;;1.75;1.42;;;;;;;17.58;100.00;99153.47;6116043;28;20244;-65
2023/08/03 09:10:05;;;;;;;1.25;0.75;;;;;;;17.73;100.00;99165.94;6117773;28;20251;-66
2023/08/03 09:13:27;;;;;;;1.42;1.33;;;;;;;17.94;100.00;99160.88;6119358;29;20598;-65
2023/08/03 09:16:50;;;;;;;1.30;0.90;;;;;;;18.27;100.00;99171.44;6119675;29;20642;-66
2023/08/03 09:20:23;;;;;;;3.67;2.33;;;;;;;18.44;100.00;99199.00;6118805;29;20232;-66
2023/08/03 09:23:44;;;;;;;2.55;2.22;;;;;;;18.57;100.00;99183.28;6112392;28;20622;-65
2023/08/03 09:27:05;;;;;;;1.50;1.40;;;;;;;18.85;100.00;99178.09;6112332;29;20232;-66
2023/08/03 09:30:26;;;;;;;2.75;1.67;;;;;;;18.53;100.00;99192.97;6119355;29;20239;-65
2023/08/03 09:33:57;;;;;;;3.13;2.60;;;;;;;18.74;100.00;99195.25;6106081;29;20510;-66
2023/08/03 09:37:17;;;;;;;2.10;1.58;;;;;;;18.62;100.00;99198.97;6073116;29;20231;-66
2023/08/03 09:40:43;;;;;;;2.97;1.77;;;;;;;18.48;100.00;99203.78;6120901;29;20247;-65
2023/08/03 09:44:06;;;;;;;9.30;2.40;;;;;;;18.61;100.00;99208.25;6109051;29;20722;-65
2023/08/03 09:47:27;;;;;;;1.50;1.40;;;;;;;18.87;100.00;99206.00;6114380;28;20231;-65
2023/08/03 09:50:52;;;;;;;0.80;0.80;;;;;;;18.50;100.00;99228.94;6118897;29;20425;-65
2023/08/03 09:54:18;;;;;;;1.00;1.00;;;;;;;18.43;100.00;99222.69;6103874;28;20243;-65
2023/08/03 09:57:41;;;;;;;1.85;0.77;;;;;;;18.72;100.00;99232.03;6114865;28;20231;-65
2023/08/03 10:01:05;;;;;;;1.48;1.33;;;;;;;18.65;100.00;99240.28;6106547;28;20228;-66
2023/08/03 10:04:30;;;;;;;2.00;1.73;;;;;;;18.40;100.00;99246.88;6117303;29;20664;-66
2023/08/03 10:07:58;;;;;;;1.02;0.80;;;;;;;18.28;100.00;99246.75;6116879;29;20312;-65
2023/08/03 10:11:21;;;;;;;1.05;0.82;;;;;;;18.52;100.00;99245.91;6112109;29;20791;-67
2023/08/03 10:14:44;;;;;;;1.20;1.10;;;;;;;18.49;100.00;99251.81;6109916;29;20251;-66
2023/08/03 10:18:05;;;;;;;2.50;1.08;;;;;;;17.94;100.00;99253.59;6110841;29;20665;-65
2023/08/03 10:21:27;;;;;;;2.13;1.00;;;;;;;17.83;100.00;99248.03;6119465;28;20240;-66
2023/08/03 10:25:19;;;;;;;2.70;1.48;;;;;;;17.95;100.00;99262.59;6119277;28;20318;-65
2023/08/03 10:28:47;;;;;;;5.20;1.63;;;;;;;18.03;100.00;99259.59;6112475;29;21045;-65
2023/08/03 10:32:08;;;;;;;2.90;1.58;;;;;;;18.16;100.00;99257.59;6111452;29;20231;-66
2023/08/03 10:35:39;;;;;;;2.55;1.45;;;;;;;17.95;100.00;99266.19;6110853;29;20227;-66
2023/08/03 10:39:03;;;;;;;2.45;1.45;;;;;;;18.05;100.00;99273.84;6111475;29;20236;-65
2023/08/03 10:42:30;;;;;;;3.13;1.55;;;;;;;18.29;100.00;99281.19;6120011;29;20228;-67
2023/08/03 10:45:51;;;;;;;1.63;1.52;;;;;;;18.40;100.00;99291.34;6113575;29;20348;-66
2023/08/03 10:49:45;;;;;;;3.05;1.92;;;;;;;18.43;100.00;99298.25;6114888;29;20240;-67
2023/08/03 10:53:05;;;;;;;1.60;1.50;;;;;;;18.55;100.00;99302.78;6116688;28;20283;-67
2023/08/03 10:56:26;;;;;;;2.53;1.73;;;;;;;18.61;100.00;99312.78;6109241;29;20494;-65
2023/08/03 10:59:52;;;;;;;2.53;2.33;;;;;;;18.64;100.00;99315.06;6119576;28;20264;-66
2023/08/03 11:03:16;;;;;;;3.33;2.05;;;;;;;19.13;100.00;99327.72;6115466;28;20240;-65
2023/08/03 11:06:38;;;;;;;4.45;1.92;;;;;;;18.97;100.00;99320.16;6115403;29;20236;-65
2023/08/03 11:09:59;;;;;;;1.67;1.58;;;;;;;19.55;100.00;99326.78;6118208;29;20240;-66
2023/08/03 11:13:19;;;;;;;4.35;2.30;;;;;;;19.49;100.00;99327.72;6115985;29;20649;-65
2023/08/03 11:16:42;;;;;;;2.88;1.45;;;;;;;19.69;100.00;99328.25;6113600;29;20252;-65
2023/08/03 11:20:05;;;;;;;1.30;1.17;;;;;;;20.76;100.00;99329.84;6108323;29;20228;-65
2023/08/03 11:23:30;;;;;;;2.70;1.30;;;;;;;20.35;100.00;99324.50;6116887;28;20228;-65
2023/08/03 11:26:52;;;;;;;2.08;1.90;;;;;;;21.80;100.00;99326.81;6111340;29;20251;-66
2023/08/03 11:30:13;;;;;;;1.20;1.10;;;;;;;20.74;98.68;99326.50;6110842;29;20239;-66
2023/08/03 11:33:37;;;;;;;1.08;1.05;;;;;;;20.66;98.43;99348.78;6115049;28;20240;-66
2023/08/03 11:36:58;;;;;;;1.73;1.33;;;;;;;20.09;99.09;99357.75;6111354;29;20600;-65
2023/08/03 11:40:19;;;;;;;3.92;1.98;;;;;;;20.06;99.79;99364.53;6118744;29;20311;-65
2023/08/03 11:43:40;;;;;;;1.30;1.20;;;;;;;19.79;100.00;99371.47;6114230;29;20231;-66
2023/08/03 11:47:03;;;;;;;3.17;2.17;;;;;;;19.55;100.00;99377.88;6104810;29;20267;-65
2023/08/03 11:50:26;;;;;;;0.90;0.90;;;;;;;19.40;100.00;99382.94;6117966;29;20239;-66
2023/08/03 11:53:47;;;;;;;5.72;2.28;;;;;;;19.48;100.00;99394.41;6100676;29;20677;-65
2023/08/03 12:00:47;;;;;;;1.45;1.40;;;;;;;18.94;100.00;99403.38;6110227;29;20518;-66
2023/08/03 12:04:09;;;;;;;1.35;1.10;;;;;;;19.17;100.00;99405.44;6110391;29;20346;-65
2023/08/03 12:07:32;;;;;;;1.20;1.05;;;;;;;19.11;100.00;99422.75;6114502;29;20236;-66
2023/08/03 12:10:57;;;;;;;1.10;1.00;;;;;;;19.34;100.00;99411.19;6116425;29;20236;-66
2023/08/03 12:14:18;;;;;;;1.02;0.98;;;;;;;19.19;100.00;99418.91;6114856;28;20614;-65
2023/08/03 12:17:39;;;;;;;1.23;1.13;;;;;;;19.45;100.00;99416.72;6109070;29;20311;-66
2023/08/03 12:21:00;;;;;;;1.35;0.95;;;;;;;19.54;100.00;99422.72;6115336;29;20314;-66
2023/08/03 12:24:22;;;;;;;1.08;1.08;;;;;;;19.49;100.00;99431.59;6110266;29;20677;-66
2023/08/03 12:27:43;;;;;;;1.02;1.02;;;;;;;19.51;100.00;99434.94;6116933;28;20223;-66
2023/08/03 12:31:05;;;;;;;1.67;1.58;;;;;;;19.37;100.00;99444.38;6106773;28;20633;-66
2023/08/03 12:34:26;;;;;;;1.20;1.10;;;;;;;19.04;100.00;99444.69;6110256;28;20236;-65
2023/08/03 12:37:47;;;;;;;1.30;1.20;;;;;;;19.27;100.00;99449.50;6106576;29;20227;-65
2023/08/03 12:41:10;;;;;;;1.02;0.90;;;;;;;19.21;100.00;99453.13;6111638;29;20232;-66
2023/08/03 12:44:30;;;;;;;0.82;0.70;;;;;;;19.45;100.00;99459.63;6118101;29;20227;-65
2023/08/03 12:47:53;;;;;;;0.80;0.70;;;;;;;20.17;100.00;99464.16;6110997;29;20541;-66
2023/08/03 12:51:14;;;;;;;0.65;0.52;;;;;;;22.99;100.00;99469.28;6119216;29;20231;-66
2023/08/03 12:54:36;;;;;;;0.55;0.55;;;;;;;27.29;83.79;99470.34;6118724;29;20236;-67
2023/08/03 12:57:58;;;;;;;1.75;0.93;;;;;;;27.06;69.81;99476.47;6119691;29;20240;-67
2023/08/03 13:01:20;;;;;;;5.55;1.67;;;;;;;24.95;72.87;99494.91;6112095;29;20331;-66
2023/08/03 13:04:41;;;;;;;0.50;0.50;;;;;;;26.55;70.08;99503.25;6115907;28;20327;-66
2023/08/03 13:08:02;;;;;;;1.17;0.65;;;;;;;28.22;62.52;99498.38;6107202;28;20244;-66
2023/08/03 13:11:26;;;;;;;0.60;0.60;;;;;;;25.07;70.40;99498.31;6117447;29;20483;-66
2023/08/03 13:14:48;;;;;;;0.70;0.55;;;;;;;27.30;68.60;99498.88;6089346;29;20231;-66
2023/08/03 13:18:09;;;;;;;1.50;0.75;;;;;;;28.64;59.58;99504.28;6114083;29;20231;-66
2023/08/03 13:21:29;;;;;;;1.33;0.60;;;;;;;25.29;67.08;99510.91;6116150;28;20665;-66
2023/08/03 13:24:50;;;;;;;1.42;0.68;;;;;;;22.26;77.25;99512.47;6119060;29;20259;-66
2023/08/03 13:28:11;;;;;;;2.67;1.23;;;;;;;21.87;82.29;99527.03;6120101;28;20236;-66
2023/08/03 13:31:33;;;;;;;1.60;1.10;;;;;;;20.93;86.94;99529.97;6122624;28;20244;-67
2023/08/03 13:34:54;;;;;;;1.27;1.17;;;;;;;20.46;91.59;99542.72;6095366;29;20232;-66
2023/08/03 13:38:14;;;;;;;6.18;1.35;;;;;;;20.99;94.41;99532.59;6109023;28;20447;-66
2023/08/03 13:41:35;;;;;;;2.13;1.65;;;;;;;24.76;84.92;99535.00;6117139;29;20239;-66
2023/08/03 13:44:56;;;;;;;0.77;0.75;;;;;;;22.38;85.20;99550.88;6106731;29;20247;-66
2023/08/03 13:48:18;;;;;;;2.25;0.95;;;;;;;24.14;80.69;99543.63;6097896;29;20235;-65
2023/08/03 13:51:39;;;;;;;1.95;0.75;;;;;;;27.37;72.37;99539.03;6115930;29;20236;-65
2023/08/03 13:55:02;;;;;;;1.88;1.20;;;;;;;27.54;66.98;99547.88;6116636;28;20549;-66
2023/08/03 13:58:23;;;;;;;1.45;1.17;;;;;;;27.51;65.39;99544.84;6116992;28;20735;-66
2023/08/03 14:01:44;;;;;;;1.20;1.13;;;;;;;29.10;61.19;99549.97;6114278;29;20243;-67
2023/08/03 14:05:06;;;;;;;2.03;1.25;;;;;;;25.87;67.01;99569.81;6118160;29;20915;-66
2023/08/03 14:08:28;;;;;;;7.20;6.50;;;;;;;26.59;69.29;99572.66;6119873;29;20674;-67
2023/08/03 14:11:49;;;;;;;1.20;1.10;;;;;;;27.51;69.04;99578.06;6114702;28;20334;-66
2023/08/03 14:15:11;;;;;;;3.42;1.55;;;;;;;25.86;70.61;99598.53;6120019;28;20239;-66
2023/08/03 14:18:32;;;;;;;1.52;0.90;;;;;;;24.60;75.49;99609.22;6115199;28;20232;-67
2023/08/03 14:21:54;;;;;;;1.30;1.10;;;;;;;23.70;78.25;99614.31;6119823;29;20239;-66
2023/08/03 14:25:16;;;;;;;1.58;0.90;;;;;;;22.85;80.48;99608.16;6108389;29;20228;-67
2023/08/03 14:28:38;;;;;;;2.33;1.10;;;;;;;23.10;82.44;99618.78;6111403;29;20812;-66
2023/08/03 14:31:59;;;;;;;2.75;1.38;;;;;;;24.19;80.88;99623.59;6111270;28;20602;-66
2023/08/03 14:35:20;;;;;;;1.60;1.48;;;;;;;23.98;80.35;99623.53;6116392;29;20492;-68
2023/08/03 14:38:43;;;;;;;2.45;1.38;;;;;;;25.44;78.30;99631.66;6118958;29;20506;-66
2023/08/03 14:42:04;;;;;;;3.17;0.80;;;;;;;24.86;75.85;99637.94;6115678;28;20247;-66
2023/08/03 14:45:28;;;;;;;1.83;0.93;;;;;;;23.89;77.93;99636.88;6113782;29;20620;-65
2023/08/03 14:48:49;;;;;;;2.45;1.23;;;;;;;23.82;79.10;99636.25;6114760;29;20307;-66
2023/08/03 14:52:10;;;;;;;0.82;0.82;;;;;;;23.76;78.77;99637.25;6118761;29;20228;-66
2023/08/03 14:55:32;;;;;;;1.20;1.10;;;;;;;23.30;79.50;99629.31;6113466;28;20319;-67
2023/08/03 14:58:53;;;;;;;2.92;1.45;;;;;;;23.18;81.10;99634.03;6118787;28;20243;-67
2023/08/03 15:02:14;;;;;;;1.38;1.23;;;;;;;22.94;82.26;99636.94;6114357;29;20271;-66
2023/08/03 15:05:34;;;;;;;1.63;0.90;;;;;;;22.68;82.51;99644.91;6114829;29;20352;-66
2023/08/03 15:08:55;;;;;;;1.77;1.17;;;;;;;22.89;83.11;99650.56;6110871;28;20228;-66
2023/08/03 15:12:18;;;;;;;1.35;0.90;;;;;;;22.92;83.39;99652.00;6110403;29;20240;-66
2023/08/03 15:15:39;;;;;;;1.50;1.35;;;;;;;22.91;83.30;99653.91;6110023;29;20236;-66
2023/08/03 15:19:00;;;;;;;1.30;1.20;;;;;;;22.94;83.96;99649.84;6111711;29;20235;-67
2023/08/03 15:22:21;;;;;;;0.75;0.73;;;;;;;23.02;83.66;99649.44;6090750;29;20323;-66
2023/08/03 15:25:42;;;;;;;1.58;1.02;;;;;;;23.09;83.52;99652.88;6113489;28;20263;-67
2023/08/03 15:29:04;;;;;;;1.15;1.05;;;;;;;23.26;83.50;99666.66;6106833;29;20235;-66
2023/08/03 15:32:25;;;;;;;1.77;1.25;;;;;;;22.71;82.52;99667.25;6118840;29;20239;-67
2023/08/03 15:35:46;;;;;;;1.50;0.80;;;;;;;22.32;81.20;99669.97;6113804;29;20231;-67
2023/08/03 15:39:07;;;;;;;2.08;1.58;;;;;;;22.81;79.01;99677.59;6112942;29;20240;-66
2023/08/03 15:42:28;;;;;;;1.00;0.98;;;;;;;23.84;74.88;99673.44;6108134;29;20351;-67
2023/08/03 15:45:50;;;;;;;1.38;0.98;;;;;;;23.19;74.30;99685.22;6118416;28;20250;-67